Terminal Aerodrome Forecast
Issued by NWS Omaha/Valley, NE

Home | Current Version | Previous Version | Graphics & Text | Print | Product List | Glossary On
Versions: 1 2 3 4 5 6 7 8 9 10 11 12 13 14 15 16 17 18 19 20
000
FTUS43 KOAX 221720
TAFOFK
TAF
KOFK 221720Z 2218/2318 16018G28KT P6SM BKN150
      TEMPO 2218/2221 BKN050
     FM230100 15015G23KT P6SM SCT030 SCT250
     FM230700 17013KT P6SM -SHRA SCT009 OVC025 PROB30 2308/2314 4SM
      TSRA OVC009CB
     FM231400 18010KT 6SM BR OVC015=

USA.gov is the U.S. government's official web portal to all federal, state and local government web resources and services.